Time;durP1;ratioP1;P1;durP2;ratioP2;P2;SDS_P1;SDS_P2;PMS_P1;PMS_P2;Temp;Humidity;BMP_temperature;BMP_pressure;BME280_temperature;BME280_humidity;BME280_pressure;Samples;Min_cycle;Max_cycle;Signal;HPM_P1;HPM_P2
2021/04/21 00:01:09;;;;;;;54.60;34.93;;;;;;;9.41;100.00;101815.27;1879132;76;26651;-75
2021/04/21 00:03:40;;;;;;;50.53;32.37;;;;;;;9.35;100.00;101810.72;1879052;76;26303;-75
2021/04/21 00:06:11;;;;;;;49.53;33.00;;;;;;;9.30;100.00;101813.41;1879143;76;26204;-75
2021/04/21 00:08:41;;;;;;;53.50;33.77;;;;;;;9.31;100.00;101810.39;1879015;75;26252;-75
2021/04/21 00:11:12;;;;;;;54.90;34.60;;;;;;;9.43;100.00;101808.89;1879168;76;26196;-75
2021/04/21 00:13:44;;;;;;;60.47;36.97;;;;;;;9.52;100.00;101808.22;1879230;76;26274;-75
2021/04/21 00:16:15;;;;;;;56.10;36.10;;;;;;;9.44;100.00;101815.59;1879144;76;26313;-75
2021/04/21 00:18:47;;;;;;;56.07;35.63;;;;;;;9.65;100.00;101811.17;1879086;76;26779;-76
2021/04/21 00:21:17;;;;;;;55.60;36.67;;;;;;;9.63;100.00;101805.02;1879097;76;26197;-75
2021/04/21 00:23:49;;;;;;;62.43;39.53;;;;;;;9.63;100.00;101807.80;1879154;76;26688;-75
2021/04/21 00:26:22;;;;;;;59.97;37.77;;;;;;;9.71;100.00;101808.77;1879063;76;26722;-75
2021/04/21 00:28:54;;;;;;;58.63;36.27;;;;;;;9.80;100.00;101803.59;1879117;76;26270;-75
2021/04/21 00:31:26;;;;;;;49.60;31.33;;;;;;;9.84;100.00;101808.95;1879032;76;26220;-75
2021/04/21 00:33:58;;;;;;;55.23;33.73;;;;;;;9.89;100.00;101803.44;1879094;76;26632;-75
2021/04/21 00:36:31;;;;;;;42.80;29.70;;;;;;;9.82;100.00;101806.97;1879042;76;26608;-76
2021/04/21 00:39:03;;;;;;;45.53;31.10;;;;;;;9.65;100.00;101806.17;1879485;76;26303;-75
2021/04/21 00:41:36;;;;;;;49.87;32.43;;;;;;;9.48;100.00;101812.59;1879120;76;26277;-75
2021/04/21 00:44:10;;;;;;;51.17;32.97;;;;;;;9.38;100.00;101812.97;1879123;76;26655;-75
2021/04/21 00:46:45;;;;;;;49.40;33.27;;;;;;;9.31;100.00;101812.31;1879110;76;26192;-75
2021/04/21 00:49:18;;;;;;;52.17;34.07;;;;;;;9.37;100.00;101816.86;1879125;76;26694;-75
2021/04/21 00:51:52;;;;;;;56.10;34.67;;;;;;;9.32;100.00;101805.69;1879008;76;26654;-75
2021/04/21 00:54:25;;;;;;;56.43;35.90;;;;;;;9.28;100.00;101810.91;1879161;76;26192;-75
2021/04/21 00:57:01;;;;;;;56.30;36.07;;;;;;;9.42;100.00;101805.83;1879312;76;26769;-75
2021/04/21 00:59:41;;;;;;;56.57;37.00;;;;;;;9.42;100.00;101808.59;1879196;76;26245;-77
2021/04/21 01:02:14;;;;;;;55.93;35.10;;;;;;;9.48;100.00;101805.66;1879390;76;26675;-75
2021/04/21 01:04:44;;;;;;;61.87;39.03;;;;;;;9.62;100.00;101808.08;1879020;76;26193;-75
2021/04/21 01:07:16;;;;;;;63.20;39.13;;;;;;;9.56;100.00;101805.77;1878906;75;26329;-75
2021/04/21 01:09:49;;;;;;;59.93;38.20;;;;;;;9.63;100.00;101800.86;1879039;76;26729;-76
2021/04/21 01:12:22;;;;;;;60.17;37.43;;;;;;;9.76;100.00;101809.36;1879236;76;26209;-75
2021/04/21 01:14:54;;;;;;;61.33;37.30;;;;;;;9.82;100.00;101800.87;1879046;76;26212;-75
2021/04/21 01:17:27;;;;;;;61.97;39.07;;;;;;;9.83;100.00;101802.55;1879016;76;26239;-75
2021/04/21 01:20:05;;;;;;;63.17;39.43;;;;;;;9.63;100.00;101807.80;1878997;76;26200;-75
2021/04/21 01:22:42;;;;;;;62.77;39.17;;;;;;;9.64;100.00;101809.48;1879086;76;26719;-75
2021/04/21 01:25:16;;;;;;;60.57;38.40;;;;;;;9.76;100.00;101810.20;1879269;76;26289;-75
2021/04/21 01:27:50;;;;;;;63.80;39.00;;;;;;;9.58;100.00;101811.91;1879049;76;26196;-75
2021/04/21 01:30:23;;;;;;;61.30;38.70;;;;;;;9.59;100.00;101814.95;1879091;76;26258;-75
2021/04/21 01:32:56;;;;;;;65.93;40.47;;;;;;;9.46;100.00;101814.77;1878971;76;26254;-75
2021/04/21 01:35:27;;;;;;;62.80;40.23;;;;;;;9.31;100.00;101814.55;1879095;76;26303;-76
2021/04/21 01:38:00;;;;;;;64.90;40.50;;;;;;;9.18;100.00;101823.75;1878984;76;26312;-75
2021/04/21 01:40:34;;;;;;;71.40;40.73;;;;;;;9.17;100.00;101821.52;1879108;76;26204;-74
2021/04/21 01:43:10;;;;;;;72.00;42.20;;;;;;;9.14;100.00;101819.26;1879011;76;26695;-75
2021/04/21 01:45:41;;;;;;;75.17;44.73;;;;;;;9.14;100.00;101821.48;1879115;76;26184;-75
2021/04/21 01:48:15;;;;;;;78.93;45.50;;;;;;;9.20;100.00;101825.73;1879004;76;26282;-75
2021/04/21 01:50:45;;;;;;;74.90;45.60;;;;;;;9.12;100.00;101829.20;1879063;76;26345;-75
2021/04/21 01:53:18;;;;;;;85.80;48.23;;;;;;;9.05;100.00;101823.53;1878946;76;26298;-75
2021/04/21 01:55:57;;;;;;;81.77;48.40;;;;;;;9.02;100.00;101822.12;1879183;76;26208;-75
2021/04/21 01:58:36;;;;;;;83.43;48.23;;;;;;;9.04;100.00;101827.39;1879124;76;26279;-75
2021/04/21 02:01:10;;;;;;;90.90;51.30;;;;;;;9.09;100.00;101828.88;1878969;76;26193;-75
2021/04/21 02:03:43;;;;;;;73.47;46.10;;;;;;;8.99;100.00;101827.30;1879125;76;26755;-75
2021/04/21 02:06:33;;;;;;;85.60;48.17;;;;;;;8.91;100.00;101827.72;1879383;76;26230;-75
2021/04/21 02:09:12;;;;;;;87.30;50.87;;;;;;;8.95;100.00;101828.89;1879072;76;26262;-75
2021/04/21 02:11:46;;;;;;;86.60;48.67;;;;;;;8.98;100.00;101829.27;1878993;76;26198;-75
2021/04/21 02:14:20;;;;;;;85.60;49.20;;;;;;;9.03;100.00;101834.02;1879104;76;26271;-75
2021/04/21 02:16:57;;;;;;;83.90;48.10;;;;;;;8.99;100.00;101830.07;1879005;76;26189;-74
2021/04/21 02:19:37;;;;;;;81.23;50.37;;;;;;;8.92;100.00;101835.80;1879022;76;26197;-75
2021/04/21 02:22:13;;;;;;;84.07;49.23;;;;;;;9.09;100.00;101833.03;1879183;76;26667;-75
2021/04/21 02:24:49;;;;;;;89.53;50.53;;;;;;;9.07;100.00;101840.77;1879291;76;26244;-75
2021/04/21 02:27:24;;;;;;;100.17;55.50;;;;;;;8.89;100.00;101835.45;1879045;76;26229;-74
2021/04/21 02:29:59;;;;;;;93.03;54.67;;;;;;;8.90;100.00;101832.98;1879518;76;26274;-74
2021/04/21 02:32:34;;;;;;;97.23;55.13;;;;;;;8.86;100.00;101843.70;1879073;76;26204;-75
2021/04/21 02:35:09;;;;;;;94.57;53.43;;;;;;;8.86;100.00;101839.55;1879143;76;26204;-74
2021/04/21 02:37:42;;;;;;;102.07;56.03;;;;;;;8.85;100.00;101840.66;1879266;76;26703;-74
2021/04/21 02:40:17;;;;;;;106.30;57.67;;;;;;;8.79;100.00;101843.03;1879418;76;26213;-75
2021/04/21 02:42:51;;;;;;;99.63;55.90;;;;;;;9.01;100.00;101844.53;1879164;76;26596;-75
2021/04/21 02:45:25;;;;;;;96.43;54.50;;;;;;;8.69;100.00;101846.98;1879073;76;26624;-75
2021/04/21 02:47:59;;;;;;;100.73;58.03;;;;;;;8.66;100.00;101841.95;1879109;76;26781;-76
2021/04/21 02:50:33;;;;;;;99.50;56.30;;;;;;;8.75;100.00;101847.93;1879087;76;26656;-74
2021/04/21 02:53:12;;;;;;;94.63;53.97;;;;;;;8.78;100.00;101846.04;1879176;76;26663;-74
2021/04/21 02:55:50;;;;;;;99.63;55.57;;;;;;;8.53;100.00;101844.48;1879231;76;26217;-75
2021/04/21 02:58:24;;;;;;;93.57;52.90;;;;;;;8.53;100.00;101850.56;1879114;76;26208;-75
2021/04/21 03:00:58;;;;;;;94.30;53.63;;;;;;;8.64;100.00;101849.12;1878902;76;26281;-75
2021/04/21 03:03:33;;;;;;;95.33;51.90;;;;;;;8.65;100.00;101852.73;1879166;76;26792;-75
2021/04/21 03:06:06;;;;;;;93.93;54.07;;;;;;;8.46;100.00;101853.49;1879000;76;26233;-74
2021/04/21 03:08:39;;;;;;;93.13;53.17;;;;;;;8.52;100.00;101845.56;1879043;76;26239;-75
2021/04/21 03:11:13;;;;;;;99.23;53.90;;;;;;;8.62;100.00;101849.08;1879167;76;26243;-74
2021/04/21 03:13:47;;;;;;;97.00;53.60;;;;;;;8.53;100.00;101844.48;1879056;76;26204;-75
2021/04/21 03:16:19;;;;;;;91.73;53.47;;;;;;;8.45;100.00;101850.42;1879063;76;26241;-75
2021/04/21 03:18:51;;;;;;;90.13;53.77;;;;;;;8.70;100.00;101852.83;1879108;76;26224;-75
2021/04/21 03:21:24;;;;;;;89.93;52.03;;;;;;;8.64;100.00;101848.30;1879040;76;26266;-75
2021/04/21 03:23:57;;;;;;;83.20;50.40;;;;;;;8.39;100.00;101850.01;1879089;76;26639;-76
2021/04/21 03:26:29;;;;;;;94.67;52.00;;;;;;;8.36;100.00;101851.89;1879074;76;26196;-75
2021/04/21 03:29:02;;;;;;;90.83;52.00;;;;;;;8.41;100.00;101849.23;1879044;76;26208;-75
2021/04/21 03:31:39;;;;;;;92.97;52.90;;;;;;;8.37;100.00;101854.13;1879193;76;26208;-76
2021/04/21 03:34:12;;;;;;;88.73;51.07;;;;;;;8.56;100.00;101850.91;1879115;76;26267;-76
2021/04/21 03:36:59;;;;;;;96.70;54.53;;;;;;;8.48;100.00;101854.61;1854639;77;33107;-74
2021/04/21 03:39:29;;;;;;;89.10;49.90;;;;;;;8.24;100.00;101859.37;1855615;77;26663;-75
2021/04/21 03:41:59;;;;;;;98.43;53.40;;;;;;;8.33;100.00;101861.23;1855707;77;26667;-75
2021/04/21 03:44:29;;;;;;;89.83;51.00;;;;;;;8.52;100.00;101851.10;1855568;77;26770;-75
2021/04/21 03:46:59;;;;;;;90.00;52.00;;;;;;;8.40;100.00;101856.39;1855588;77;26678;-74
2021/04/21 03:49:30;;;;;;;95.33;54.50;;;;;;;8.24;100.00;101846.91;1855751;77;26215;-75
2021/04/21 03:52:01;;;;;;;90.87;51.27;;;;;;;8.23;100.00;101855.75;1855653;77;26687;-75
2021/04/21 03:54:33;;;;;;;94.30;53.23;;;;;;;8.10;100.00;101851.03;1855718;77;26274;-75
2021/04/21 03:57:04;;;;;;;97.50;52.60;;;;;;;8.08;100.00;101848.53;1855666;77;26760;-75
2021/04/21 03:59:38;;;;;;;91.63;52.17;;;;;;;8.19;100.00;101845.42;1855649;77;26305;-75
2021/04/21 04:02:11;;;;;;;93.23;52.53;;;;;;;8.18;100.00;101850.11;1841141;76;935112;-76
2021/04/21 04:04:44;;;;;;;92.47;53.00;;;;;;;8.15;100.00;101847.00;1884527;76;26257;-75
2021/04/21 04:07:15;;;;;;;92.90;52.30;;;;;;;8.22;100.00;101855.45;1868640;75;26284;-75
2021/04/21 04:09:48;;;;;;;95.00;53.00;;;;;;;8.42;100.00;101851.46;1877600;75;26235;-75
2021/04/21 04:12:20;;;;;;;93.83;54.60;;;;;;;8.59;100.00;101850.97;1877547;76;26697;-75
2021/04/21 04:14:52;;;;;;;97.97;53.67;;;;;;;8.45;100.00;101855.95;1877680;75;26229;-75
2021/04/21 04:17:26;;;;;;;89.43;51.93;;;;;;;8.41;100.00;101858.08;1877665;76;26281;-74
2021/04/21 04:19:58;;;;;;;94.03;55.37;;;;;;;8.41;100.00;101858.92;1877753;76;26194;-74
2021/04/21 04:22:31;;;;;;;97.00;54.73;;;;;;;8.27;100.00;101859.41;1877674;76;26642;-73
2021/04/21 04:25:03;;;;;;;90.97;52.80;;;;;;;8.34;100.00;101858.78;1877665;76;26254;-73
2021/04/21 04:27:34;;;;;;;94.13;52.03;;;;;;;8.31;100.00;101862.02;1877640;75;26681;-74
2021/04/21 04:30:06;;;;;;;90.03;51.87;;;;;;;8.24;100.00;101860.75;1877732;75;26179;-74
2021/04/21 04:32:39;;;;;;;92.23;53.50;;;;;;;8.03;100.00;101866.41;1877610;76;26219;-73
2021/04/21 04:35:11;;;;;;;94.60;54.53;;;;;;;8.03;100.00;101861.41;1877549;76;26257;-73
2021/04/21 04:37:43;;;;;;;103.70;59.07;;;;;;;8.09;100.00;101864.02;1877851;75;26261;-73
2021/04/21 04:40:15;;;;;;;100.17;57.23;;;;;;;8.16;100.00;101866.67;1877545;76;26183;-73
2021/04/21 04:42:45;;;;;;;107.30;59.97;;;;;;;8.13;100.00;101866.60;1877566;76;26610;-74
2021/04/21 04:45:20;;;;;;;102.37;57.97;;;;;;;7.95;100.00;101864.02;1877659;76;26353;-73
2021/04/21 04:47:54;;;;;;;104.73;57.73;;;;;;;7.93;100.00;101871.70;1877578;75;26606;-73
2021/04/21 04:50:25;;;;;;;105.00;58.87;;;;;;;7.91;100.00;101873.05;1877641;76;26703;-75
2021/04/21 04:52:58;;;;;;;99.63;60.30;;;;;;;7.85;100.00;101876.23;1877584;75;26217;-75
2021/04/21 04:55:29;;;;;;;114.07;59.63;;;;;;;7.78;100.00;101876.37;1877651;75;26190;-75
2021/04/21 04:58:01;;;;;;;110.23;62.13;;;;;;;7.94;100.00;101884.46;1877593;75;26198;-75
2021/04/21 05:00:31;;;;;;;108.77;61.87;;;;;;;7.95;100.00;101886.15;1877832;76;26284;-75
2021/04/21 05:03:04;;;;;;;108.07;62.00;;;;;;;7.88;100.00;101896.48;1877579;75;26311;-75
2021/04/21 05:05:36;;;;;;;107.03;62.10;;;;;;;7.87;100.00;101889.29;1877639;75;26223;-75
2021/04/21 05:08:10;;;;;;;110.43;60.50;;;;;;;7.88;100.00;101892.87;1877601;76;26297;-74
2021/04/21 05:10:44;;;;;;;103.93;58.40;;;;;;;7.79;100.00;101896.55;1877536;75;26242;-75
2021/04/21 05:13:17;;;;;;;104.63;58.53;;;;;;;7.74;100.00;101897.83;1877527;76;26268;-74
2021/04/21 05:16:30;;;;;;;113.33;63.53;;;;;;;7.77;100.00;101898.73;1877588;75;26242;-73
2021/04/21 05:19:42;;;;;;;104.27;59.13;;;;;;;7.69;100.00;101904.63;1877561;76;26187;-74
2021/04/21 05:22:55;;;;;;;111.97;61.90;;;;;;;7.68;100.00;101902.93;1877646;76;26175;-73
2021/04/21 05:26:06;;;;;;;114.00;61.27;;;;;;;7.70;100.00;101907.13;1876985;75;26203;-74
2021/04/21 05:28:59;;;;;;;109.20;59.93;;;;;;;7.78;100.00;101910.09;1877563;76;26238;-74
2021/04/21 05:32:17;;;;;;;110.70;61.60;;;;;;;7.71;100.00;101908.81;1877144;75;26190;-75
2021/04/21 05:35:29;;;;;;;108.20;59.20;;;;;;;7.77;100.00;101907.87;1877358;75;26292;-75
2021/04/21 05:38:41;;;;;;;113.93;62.10;;;;;;;7.69;100.00;101910.16;1904471;75;26158;-74
2021/04/21 05:41:36;;;;;;;114.93;61.20;;;;;;;7.67;100.00;101914.53;1893513;75;26602;-75
2021/04/21 05:44:54;;;;;;;113.33;63.10;;;;;;;7.74;100.00;101913.86;1907850;75;26741;-75
2021/04/21 05:47:50;;;;;;;111.63;60.03;;;;;;;7.76;100.00;101916.39;1908566;75;26661;-76
2021/04/21 05:51:12;;;;;;;103.27;61.63;;;;;;;7.93;100.00;101916.50;1908103;75;26158;-76
2021/04/21 05:53:55;;;;;;;107.53;60.67;;;;;;;8.02;100.00;101920.59;1874428;76;26181;-75
2021/04/21 05:56:49;;;;;;;108.97;62.13;;;;;;;8.12;100.00;101920.29;1876855;75;26186;-75
2021/04/21 05:59:49;;;;;;;116.83;63.67;;;;;;;8.17;100.00;101922.33;1872136;77;26212;-77
2021/04/21 06:02:21;;;;;;;103.77;60.43;;;;;;;8.31;100.00;101918.77;1907306;75;26697;-76
2021/04/21 06:05:03;;;;;;;106.00;60.27;;;;;;;8.16;100.00;101924.25;1872156;77;26216;-76
2021/04/21 06:07:33;;;;;;;108.10;61.17;;;;;;;8.12;100.00;101927.75;1877627;76;26195;-77
2021/04/21 06:10:26;;;;;;;119.07;62.50;;;;;;;8.27;100.00;101934.14;1877659;75;26260;-75
2021/04/21 06:13:01;;;;;;;107.47;61.17;;;;;;;8.41;100.00;101930.06;1877659;75;26395;-75
2021/04/21 06:15:33;;;;;;;104.30;60.53;;;;;;;8.55;100.00;101937.02;1877710;76;26245;-76
2021/04/21 06:18:05;;;;;;;101.13;56.70;;;;;;;8.32;100.00;101941.22;1877642;76;26191;-75
2021/04/21 06:20:39;;;;;;;97.70;59.97;;;;;;;8.19;100.00;101945.91;1877745;76;26710;-75
2021/04/21 06:23:12;;;;;;;108.53;59.47;;;;;;;8.31;100.00;101954.75;1877642;76;26194;-77
2021/04/21 06:25:43;;;;;;;103.80;59.43;;;;;;;8.46;100.00;101960.09;1877736;76;26216;-75
2021/04/21 06:28:19;;;;;;;109.67;63.23;;;;;;;8.51;100.00;101956.05;1877654;76;26281;-75
2021/04/21 06:30:51;;;;;;;106.17;64.87;;;;;;;8.64;100.00;101958.52;1877634;76;26293;-76
2021/04/21 06:33:22;;;;;;;109.20;63.47;;;;;;;8.70;100.00;101960.86;1877485;76;26198;-74
2021/04/21 06:35:55;;;;;;;111.03;65.53;;;;;;;8.79;100.00;101964.93;1877712;75;26249;-74
2021/04/21 06:38:30;;;;;;;121.40;68.07;;;;;;;8.93;100.00;101958.02;1877639;75;26193;-76
2021/04/21 06:41:01;;;;;;;117.30;66.27;;;;;;;9.17;100.00;101963.44;1877713;75;26191;-76
2021/04/21 06:43:32;;;;;;;116.13;66.27;;;;;;;9.15;100.00;101958.16;1877588;76;26269;-76
2021/04/21 06:46:07;;;;;;;113.40;67.23;;;;;;;9.22;100.00;101960.22;1877660;75;26271;-75
2021/04/21 06:48:37;;;;;;;110.90;65.40;;;;;;;9.40;100.00;101967.48;1877189;75;26176;-74
2021/04/21 06:51:11;;;;;;;109.83;64.47;;;;;;;9.49;100.00;101964.59;1877658;76;26179;-75
2021/04/21 06:53:42;;;;;;;113.53;66.77;;;;;;;9.81;100.00;101966.22;1877659;75;26646;-75
2021/04/21 06:56:13;;;;;;;109.30;65.03;;;;;;;9.74;100.00;101966.41;1877987;75;26199;-73
2021/04/21 06:58:44;;;;;;;107.37;63.23;;;;;;;9.77;100.00;101968.67;1878131;76;26261;-73
2021/04/21 07:01:18;;;;;;;103.63;63.10;;;;;;;9.94;100.00;101970.88;1877773;76;26248;-73
2021/04/21 07:03:48;;;;;;;104.07;61.37;;;;;;;10.01;100.00;101972.11;1877662;75;26214;-73
2021/04/21 07:06:18;;;;;;;93.77;57.27;;;;;;;10.16;100.00;101965.97;1877672;76;26178;-73
2021/04/21 07:08:48;;;;;;;92.50;57.00;;;;;;;10.29;100.00;101969.22;1877836;76;26191;-73
2021/04/21 07:11:20;;;;;;;93.13;54.87;;;;;;;10.39;100.00;101970.77;1877618;75;26227;-74
2021/04/21 07:13:51;;;;;;;83.70;53.47;;;;;;;10.57;100.00;101966.81;1877496;76;26198;-73
2021/04/21 07:16:24;;;;;;;84.63;52.83;;;;;;;10.69;100.00;101968.94;1877560;76;26195;-73
2021/04/21 07:18:56;;;;;;;79.60;50.97;;;;;;;10.73;100.00;101974.27;1877755;75;26187;-73
2021/04/21 07:21:28;;;;;;;80.60;50.60;;;;;;;10.88;100.00;101968.03;1877712;76;26307;-74
2021/04/21 07:24:00;;;;;;;76.97;48.90;;;;;;;11.08;100.00;101969.64;1877722;75;26203;-75
2021/04/21 07:26:31;;;;;;;74.20;48.87;;;;;;;11.19;100.00;101966.44;1877629;75;26630;-76
2021/04/21 07:29:02;;;;;;;67.27;46.53;;;;;;;11.36;100.00;101967.17;1877643;76;26190;-76
2021/04/21 07:31:37;;;;;;;68.53;43.70;;;;;;;11.51;100.00;101964.52;1877577;76;26245;-75
2021/04/21 07:34:08;;;;;;;66.30;45.30;;;;;;;11.45;100.00;101964.20;1877585;75;26199;-74
2021/04/21 07:36:46;;;;;;;63.33;40.90;;;;;;;11.62;100.00;101966.30;1877491;75;26295;-73
2021/04/21 07:39:17;;;;;;;56.47;38.13;;;;;;;11.68;100.00;101963.83;1877774;75;26288;-75
2021/04/21 07:41:50;;;;;;;56.27;38.00;;;;;;;11.80;100.00;101964.55;1877666;75;26610;-74
2021/04/21 07:44:31;;;;;;;51.80;35.37;;;;;;;12.05;100.00;101967.23;1877578;76;26194;-74
2021/04/21 07:47:14;;;;;;;53.60;34.53;;;;;;;12.18;100.00;101965.37;1877496;75;26625;-74
2021/04/21 07:49:48;;;;;;;44.77;32.13;;;;;;;12.18;100.00;101953.67;1877606;76;26226;-74
2021/04/21 07:52:26;;;;;;;44.30;30.47;;;;;;;12.42;100.00;101959.65;1877601;75;26268;-74
2021/04/21 07:55:16;;;;;;;43.37;30.47;;;;;;;12.69;100.00;101971.50;1877565;76;26178;-74
2021/04/21 07:57:48;;;;;;;41.23;30.53;;;;;;;12.85;100.00;101966.81;1877692;75;26195;-74
2021/04/21 08:00:28;;;;;;;38.70;28.77;;;;;;;13.09;100.00;101968.58;1877153;75;26195;-74
2021/04/21 08:03:00;;;;;;;39.70;29.70;;;;;;;12.98;100.00;101959.33;1877618;75;26646;-74
2021/04/21 08:05:31;;;;;;;41.37;30.80;;;;;;;13.32;100.00;101964.45;1877670;76;26717;-74
2021/04/21 08:08:03;;;;;;;39.60;28.97;;;;;;;13.52;100.00;101961.72;1877535;76;26621;-74
2021/04/21 08:10:36;;;;;;;39.60;28.07;;;;;;;13.44;100.00;101971.45;1877672;75;26627;-74
2021/04/21 08:13:08;;;;;;;39.37;27.63;;;;;;;13.63;100.00;101964.78;1877555;75;26347;-74
2021/04/21 08:15:40;;;;;;;35.73;27.70;;;;;;;13.58;100.00;101972.59;1877590;76;26191;-73
2021/04/21 08:18:12;;;;;;;34.43;26.50;;;;;;;13.74;100.00;101972.59;1877542;76;26388;-72
2021/04/21 08:20:46;;;;;;;34.33;25.07;;;;;;;13.83;100.00;101973.15;1877558;76;26195;-74
2021/04/21 08:23:18;;;;;;;34.60;25.40;;;;;;;14.05;100.00;101972.86;1877517;76;26629;-74
2021/04/21 08:25:49;;;;;;;36.20;24.93;;;;;;;14.09;100.00;101979.00;1877523;76;26634;-73
2021/04/21 08:28:21;;;;;;;36.93;26.40;;;;;;;14.12;100.00;101977.03;1877538;76;26250;-74
2021/04/21 08:30:55;;;;;;;35.07;25.87;;;;;;;14.37;100.00;101980.95;1877567;76;26285;-73
2021/04/21 08:33:25;;;;;;;31.97;24.03;;;;;;;14.25;100.00;101988.19;1877491;76;26199;-74
2021/04/21 08:35:55;;;;;;;33.80;25.30;;;;;;;14.35;100.00;101980.36;1877702;75;26674;-74
2021/04/21 08:38:25;;;;;;;29.83;23.33;;;;;;;14.69;100.00;101977.77;1877537;76;26264;-73
2021/04/21 08:40:54;;;;;;;29.63;24.17;;;;;;;14.58;100.00;101986.20;1877606;75;26607;-73
2021/04/21 08:43:25;;;;;;;37.20;26.27;;;;;;;14.58;100.00;101983.41;1877573;76;26654;-74
2021/04/21 08:45:57;;;;;;;32.40;25.37;;;;;;;14.67;100.00;101982.82;1877887;76;26215;-74
2021/04/21 08:48:28;;;;;;;34.53;24.97;;;;;;;14.78;100.00;101989.48;1877565;76;26355;-73
2021/04/21 08:51:00;;;;;;;31.43;23.97;;;;;;;15.02;100.00;101984.89;1877767;75;26212;-74
2021/04/21 08:53:33;;;;;;;31.00;23.53;;;;;;;14.89;100.00;101989.70;1877571;76;26704;-74
2021/04/21 08:56:05;;;;;;;32.30;23.50;;;;;;;14.75;100.00;101987.27;1877558;76;26265;-74
2021/04/21 08:58:36;;;;;;;31.63;23.50;;;;;;;14.70;100.00;101993.43;1877560;76;26196;-74
2021/04/21 09:01:06;;;;;;;27.83;21.33;;;;;;;14.57;100.00;101990.12;1877678;75;26646;-73
2021/04/21 09:03:36;;;;;;;27.70;21.07;;;;;;;14.68;100.00;101996.50;1877194;76;26214;-74
2021/04/21 09:06:09;;;;;;;26.00;21.47;;;;;;;14.89;100.00;102001.48;1877394;76;26602;-73
2021/04/21 09:08:40;;;;;;;25.33;20.47;;;;;;;14.89;100.00;102002.30;1877325;76;26240;-74
2021/04/21 09:11:11;;;;;;;25.40;19.63;;;;;;;15.13;100.00;102004.44;1877334;75;26195;-74
2021/04/21 09:13:40;;;;;;;25.90;21.10;;;;;;;15.06;100.00;102004.73;1877143;75;26340;-74
2021/04/21 09:16:12;;;;;;;26.63;20.20;;;;;;;15.13;100.00;101998.28;1877270;76;26183;-74
2021/04/21 09:18:43;;;;;;;23.43;18.73;;;;;;;15.83;100.00;102001.78;1877353;76;26226;-74
2021/04/21 09:21:20;;;;;;;22.20;18.47;;;;;;;15.83;100.00;101998.97;1877195;76;26179;-74
2021/04/21 09:23:50;;;;;;;22.23;15.63;;;;;;;15.71;100.00;102001.28;1877168;76;26589;-74
2021/04/21 09:26:22;;;;;;;18.00;14.83;;;;;;;15.88;100.00;102006.75;1877258;75;26265;-74
2021/04/21 09:28:54;;;;;;;16.40;14.27;;;;;;;15.82;100.00;102008.50;1877108;76;26673;-74
2021/04/21 09:31:26;;;;;;;15.57;12.60;;;;;;;15.73;100.00;102011.09;1877219;76;26277;-74
2021/04/21 09:34:15;;;;;;;14.90;12.40;;;;;;;16.01;100.00;102010.84;1877203;75;26203;-73
2021/04/21 09:36:47;;;;;;;13.60;11.53;;;;;;;16.32;100.00;102008.05;1877237;75;26301;-72
2021/04/21 09:39:23;;;;;;;15.30;12.00;;;;;;;16.22;100.00;102012.34;1877316;76;26602;-72
2021/04/21 09:42:00;;;;;;;13.00;10.23;;;;;;;16.25;100.00;102010.36;1877116;76;26268;-73
2021/04/21 09:44:30;;;;;;;11.70;9.00;;;;;;;16.38;100.00;102009.67;1877095;76;26198;-73
2021/04/21 09:47:03;;;;;;;10.50;9.40;;;;;;;16.49;100.00;102013.75;1877208;76;26188;-73
2021/04/21 09:49:35;;;;;;;11.17;9.87;;;;;;;16.16;100.00;102016.33;1876945;75;26712;-72
2021/04/21 09:52:25;;;;;;;12.77;10.40;;;;;;;16.40;100.00;102014.41;1877218;75;26186;-73
2021/04/21 09:54:56;;;;;;;13.33;10.47;;;;;;;16.25;100.00;102006.16;1877286;75;26272;-73
2021/04/21 09:57:32;;;;;;;15.30;10.20;;;;;;;15.99;100.00;102016.48;1877377;75;26223;-73
2021/04/21 10:00:02;;;;;;;11.67;9.73;;;;;;;15.84;100.00;102024.44;1877149;75;26287;-73
2021/04/21 10:02:35;;;;;;;12.00;9.70;;;;;;;15.45;100.00;102031.39;1877212;76;26331;-73
2021/04/21 10:05:27;;;;;;;12.23;9.77;;;;;;;14.94;100.00;102036.41;1877365;76;26256;-73
2021/04/21 10:08:17;;;;;;;12.03;9.67;;;;;;;14.74;100.00;102035.93;1877172;76;26179;-73
2021/04/21 10:10:50;;;;;;;13.10;10.83;;;;;;;14.70;100.00;102043.77;1877240;75;26664;-73
2021/04/21 10:13:21;;;;;;;12.13;10.33;;;;;;;14.77;100.00;102035.91;1876772;75;26651;-74
2021/04/21 10:15:51;;;;;;;15.50;11.37;;;;;;;14.95;100.00;102041.73;1877223;75;26721;-75
2021/04/21 10:18:22;;;;;;;14.97;12.33;;;;;;;15.25;100.00;102039.36;1877118;76;26281;-74
2021/04/21 10:20:52;;;;;;;17.87;12.90;;;;;;;15.34;100.00;102039.59;1877163;76;26229;-74
2021/04/21 10:23:22;;;;;;;16.83;13.47;;;;;;;15.31;100.00;102035.98;1877232;76;26847;-75
2021/04/21 10:25:52;;;;;;;15.80;12.97;;;;;;;15.32;100.00;102039.03;1877153;75;26315;-74
2021/04/21 10:28:23;;;;;;;15.97;13.80;;;;;;;15.52;100.00;102040.92;1877229;76;26323;-74
2021/04/21 10:30:53;;;;;;;18.27;14.23;;;;;;;15.64;100.00;102039.44;1877087;76;26656;-74
2021/04/21 10:33:24;;;;;;;17.23;15.30;;;;;;;15.79;100.00;102035.68;1877105;76;26195;-74
2021/04/21 10:35:55;;;;;;;16.87;15.00;;;;;;;15.72;100.00;102039.39;1877311;75;26262;-74
2021/04/21 10:38:26;;;;;;;20.77;17.30;;;;;;;15.97;100.00;102036.95;1877268;75;26271;-74
2021/04/21 10:41:26;;;;;;;24.47;16.43;;;;;;;15.72;100.00;102047.78;1877141;76;26288;-72
2021/04/21 10:44:14;;;;;;;21.77;17.63;;;;;;;15.42;100.00;102043.19;1877147;75;26273;-72
2021/04/21 10:47:05;;;;;;;20.83;17.03;;;;;;;15.91;100.00;102034.77;1877253;76;26285;-73
2021/04/21 10:49:57;;;;;;;20.17;16.27;;;;;;;16.27;100.00;102041.73;1877292;75;26190;-73
2021/04/21 10:52:39;;;;;;;17.87;14.83;;;;;;;16.17;100.00;102039.60;1877285;75;26219;-72
2021/04/21 10:55:35;;;;;;;18.80;16.00;;;;;;;16.05;100.00;102048.37;1877187;75;26257;-73
2021/04/21 10:58:09;;;;;;;17.50;14.70;;;;;;;15.62;100.00;102060.45;1877334;75;26378;-72
2021/04/21 11:00:40;;;;;;;18.67;14.23;;;;;;;15.64;100.00;102063.81;1877277;76;26268;-73
2021/04/21 11:03:13;;;;;;;15.00;13.33;;;;;;;16.12;100.00;102061.50;1877270;75;26284;-73
2021/04/21 11:05:49;;;;;;;17.53;14.80;;;;;;;16.29;100.00;102061.08;1877331;75;26281;-73
2021/04/21 11:08:22;;;;;;;16.97;15.03;;;;;;;16.53;100.00;102064.77;1877271;76;26187;-73
2021/04/21 11:10:54;;;;;;;20.93;15.47;;;;;;;16.56;100.00;102069.77;1877543;75;26214;-73
2021/04/21 11:13:43;;;;;;;14.03;12.47;;;;;;;15.94;100.00;102079.02;1877412;75;26690;-73
2021/04/21 11:16:35;;;;;;;15.97;12.90;;;;;;;16.16;100.00;102070.16;1877101;75;26246;-72
2021/04/21 11:19:31;;;;;;;16.03;13.30;;;;;;;16.28;100.00;102076.22;1877276;76;26678;-73
2021/04/21 11:22:28;;;;;;;14.40;12.73;;;;;;;15.91;100.00;102082.41;1877205;76;26590;-73
2021/04/21 11:25:23;;;;;;;15.50;12.93;;;;;;;16.10;100.00;102074.96;1877355;76;26370;-73
2021/04/21 11:27:54;;;;;;;16.33;14.30;;;;;;;15.87;100.00;102083.53;1877290;76;26344;-73
2021/04/21 11:30:57;;;;;;;15.70;13.93;;;;;;;15.94;100.00;102093.03;1877255;75;26195;-72
2021/04/21 11:34:01;;;;;;;17.13;13.83;;;;;;;15.72;100.00;102090.66;1877264;76;26670;-72
2021/04/21 11:36:55;;;;;;;16.80;14.47;;;;;;;15.52;100.00;102091.34;1877523;76;26674;-73
2021/04/21 11:40:03;;;;;;;16.83;14.10;;;;;;;15.16;100.00;102095.66;1877363;75;26296;-72
2021/04/21 11:42:41;;;;;;;18.20;14.60;;;;;;;15.48;100.00;102096.09;1877397;75;26258;-73
2021/04/21 11:45:23;;;;;;;19.73;15.03;;;;;;;15.78;100.00;102083.91;1877334;76;26682;-72